sensor_id;sensor_type;location;lat;lon;timestamp;temperature;humidity
44136;DHT22;29798;51.064;13.734;2022-08-03T00:01:59;20.90;99.90
44136;DHT22;29798;51.064;13.734;2022-08-03T00:04:26;20.90;99.90
44136;DHT22;29798;51.064;13.734;2022-08-03T00:06:51;20.90;99.90
44136;DHT22;29798;51.064;13.734;2022-08-03T00:09:17;20.80;99.90
44136;DHT22;29798;51.064;13.734;2022-08-03T00:11:42;20.70;99.90
44136;DHT22;29798;51.064;13.734;2022-08-03T00:14:08;20.70;99.90
44136;DHT22;29798;51.064;13.734;2022-08-03T00:16:34;20.60;99.90
44136;DHT22;29798;51.064;13.734;2022-08-03T00:18:59;20.70;99.90
44136;DHT22;29798;51.064;13.734;2022-08-03T00:21:25;20.60;99.90
44136;DHT22;29798;51.064;13.734;2022-08-03T00:23:51;20.50;99.90
44136;DHT22;29798;51.064;13.734;2022-08-03T00:26:16;20.50;99.90
44136;DHT22;29798;51.064;13.734;2022-08-03T00:28:42;20.50;99.90
44136;DHT22;29798;51.064;13.734;2022-08-03T00:31:08;20.40;99.90
44136;DHT22;29798;51.064;13.734;2022-08-03T00:33:33;20.50;99.90
44136;DHT22;29798;51.064;13.734;2022-08-03T00:35:59;20.50;99.90
44136;DHT22;29798;51.064;13.734;2022-08-03T00:38:25;20.50;99.90
44136;DHT22;29798;51.064;13.734;2022-08-03T00:40:50;20.40;99.90
44136;DHT22;29798;51.064;13.734;2022-08-03T00:43:16;20.50;99.90
44136;DHT22;29798;51.064;13.734;2022-08-03T00:45:41;20.40;99.90
44136;DHT22;29798;51.064;13.734;2022-08-03T00:48:08;20.50;99.90
44136;DHT22;29798;51.064;13.734;2022-08-03T00:50:35;20.40;99.90
44136;DHT22;29798;51.064;13.734;2022-08-03T00:53:01;20.40;99.90
44136;DHT22;29798;51.064;13.734;2022-08-03T00:55:27;20.40;99.90
44136;DHT22;29798;51.064;13.734;2022-08-03T00:57:53;20.40;99.90
44136;DHT22;29798;51.064;13.734;2022-08-03T01:00:20;20.30;99.90
44136;DHT22;29798;51.064;13.734;2022-08-03T01:02:46;20.40;99.90
44136;DHT22;29798;51.064;13.734;2022-08-03T01:05:12;20.30;99.90
44136;DHT22;29798;51.064;13.734;2022-08-03T01:12:35;20.30;99.90
44136;DHT22;29798;51.064;13.734;2022-08-03T01:15:16;20.20;99.90
44136;DHT22;29798;51.064;13.734;2022-08-03T01:17:58;20.20;99.90
44136;DHT22;29798;51.064;13.734;2022-08-03T01:20:26;20.20;99.90
44136;DHT22;29798;51.064;13.734;2022-08-03T01:30:42;20.00;99.90
44136;DHT22;29798;51.064;13.734;2022-08-03T01:33:11;20.00;99.90
44136;DHT22;29798;51.064;13.734;2022-08-03T01:35:44;19.90;99.90
44136;DHT22;29798;51.064;13.734;2022-08-03T01:38:12;19.90;99.90
44136;DHT22;29798;51.064;13.734;2022-08-03T01:40:40;19.90;99.90
44136;DHT22;29798;51.064;13.734;2022-08-03T01:43:06;19.90;99.90
44136;DHT22;29798;51.064;13.734;2022-08-03T01:45:33;19.80;99.90
44136;DHT22;29798;51.064;13.734;2022-08-03T01:48:00;19.80;99.90
44136;DHT22;29798;51.064;13.734;2022-08-03T01:50:26;19.80;99.90
44136;DHT22;29798;51.064;13.734;2022-08-03T01:52:53;19.70;99.90
44136;DHT22;29798;51.064;13.734;2022-08-03T01:55:19;19.70;99.90
44136;DHT22;29798;51.064;13.734;2022-08-03T01:57:47;19.70;99.90
44136;DHT22;29798;51.064;13.734;2022-08-03T02:00:14;19.70;99.90
44136;DHT22;29798;51.064;13.734;2022-08-03T02:02:42;19.70;99.90
44136;DHT22;29798;51.064;13.734;2022-08-03T02:05:08;19.80;99.90
44136;DHT22;29798;51.064;13.734;2022-08-03T02:07:35;19.70;99.90
44136;DHT22;29798;51.064;13.734;2022-08-03T02:10:03;19.70;99.90
44136;DHT22;29798;51.064;13.734;2022-08-03T02:12:29;19.70;99.90
44136;DHT22;29798;51.064;13.734;2022-08-03T02:14:56;19.60;99.90
44136;DHT22;29798;51.064;13.734;2022-08-03T02:17:22;19.60;99.90
44136;DHT22;29798;51.064;13.734;2022-08-03T02:19:49;19.60;99.90
44136;DHT22;29798;51.064;13.734;2022-08-03T02:22:15;19.50;99.90
44136;DHT22;29798;51.064;13.734;2022-08-03T02:24:41;19.50;99.90
44136;DHT22;29798;51.064;13.734;2022-08-03T02:27:28;19.50;99.90
44136;DHT22;29798;51.064;13.734;2022-08-03T02:30:01;19.50;99.90
44136;DHT22;29798;51.064;13.734;2022-08-03T02:32:28;19.50;99.90
44136;DHT22;29798;51.064;13.734;2022-08-03T02:34:55;19.50;99.90
44136;DHT22;29798;51.064;13.734;2022-08-03T02:37:23;19.50;99.90
44136;DHT22;29798;51.064;13.734;2022-08-03T02:39:50;19.40;99.90
44136;DHT22;29798;51.064;13.734;2022-08-03T02:42:17;19.40;99.90
44136;DHT22;29798;51.064;13.734;2022-08-03T02:44:44;19.40;99.90
44136;DHT22;29798;51.064;13.734;2022-08-03T02:47:12;19.40;99.90
44136;DHT22;29798;51.064;13.734;2022-08-03T02:49:40;19.30;99.90
44136;DHT22;29798;51.064;13.734;2022-08-03T02:52:08;19.30;99.90
44136;DHT22;29798;51.064;13.734;2022-08-03T02:54:34;19.30;99.90
44136;DHT22;29798;51.064;13.734;2022-08-03T02:57:00;19.30;99.90
44136;DHT22;29798;51.064;13.734;2022-08-03T02:59:26;19.20;99.90
44136;DHT22;29798;51.064;13.734;2022-08-03T03:01:54;19.20;99.90
44136;DHT22;29798;51.064;13.734;2022-08-03T03:04:19;19.20;99.90
44136;DHT22;29798;51.064;13.734;2022-08-03T03:06:45;19.20;99.90
44136;DHT22;29798;51.064;13.734;2022-08-03T03:09:12;19.20;99.90
44136;DHT22;29798;51.064;13.734;2022-08-03T03:11:38;19.20;99.90
44136;DHT22;29798;51.064;13.734;2022-08-03T03:14:05;19.10;99.90
44136;DHT22;29798;51.064;13.734;2022-08-03T03:16:31;19.10;99.90
44136;DHT22;29798;51.064;13.734;2022-08-03T03:18:57;19.10;99.90
44136;DHT22;29798;51.064;13.734;2022-08-03T03:21:23;19.00;99.90
44136;DHT22;29798;51.064;13.734;2022-08-03T03:23:49;19.00;99.90
44136;DHT22;29798;51.064;13.734;2022-08-03T03:26:15;19.00;99.90
44136;DHT22;29798;51.064;13.734;2022-08-03T03:28:41;19.00;99.90
44136;DHT22;29798;51.064;13.734;2022-08-03T03:31:07;19.10;99.90
44136;DHT22;29798;51.064;13.734;2022-08-03T03:33:33;19.00;99.90
44136;DHT22;29798;51.064;13.734;2022-08-03T03:35:59;19.00;99.90
44136;DHT22;29798;51.064;13.734;2022-08-03T03:38:24;19.00;99.90
44136;DHT22;29798;51.064;13.734;2022-08-03T03:40:50;19.00;99.90
44136;DHT22;29798;51.064;13.734;2022-08-03T03:43:16;18.90;99.90
44136;DHT22;29798;51.064;13.734;2022-08-03T03:45:42;18.80;99.90
44136;DHT22;29798;51.064;13.734;2022-08-03T03:48:09;18.80;99.90
44136;DHT22;29798;51.064;13.734;2022-08-03T03:50:35;18.90;99.90
44136;DHT22;29798;51.064;13.734;2022-08-03T03:53:02;19.00;99.90
44136;DHT22;29798;51.064;13.734;2022-08-03T03:55:28;19.10;99.90
44136;DHT22;29798;51.064;13.734;2022-08-03T03:57:54;19.00;99.90
44136;DHT22;29798;51.064;13.734;2022-08-03T04:00:19;19.00;99.90
44136;DHT22;29798;51.064;13.734;2022-08-03T04:02:45;19.10;99.90
44136;DHT22;29798;51.064;13.734;2022-08-03T04:05:11;19.10;99.90
44136;DHT22;29798;51.064;13.734;2022-08-03T04:11:13;19.20;99.90
44136;DHT22;29798;51.064;13.734;2022-08-03T04:16:09;19.40;99.90
44136;DHT22;29798;51.064;13.734;2022-08-03T04:18:37;19.40;99.90
44136;DHT22;29798;51.064;13.734;2022-08-03T04:21:03;19.30;99.90
44136;DHT22;29798;51.064;13.734;2022-08-03T04:23:30;19.30;99.90
44136;DHT22;29798;51.064;13.734;2022-08-03T04:25:57;19.20;99.90
44136;DHT22;29798;51.064;13.734;2022-08-03T04:28:23;19.30;99.90
44136;DHT22;29798;51.064;13.734;2022-08-03T04:30:49;19.30;99.90
44136;DHT22;29798;51.064;13.734;2022-08-03T04:33:17;19.30;99.90
44136;DHT22;29798;51.064;13.734;2022-08-03T04:35:43;19.40;99.90
44136;DHT22;29798;51.064;13.734;2022-08-03T04:38:11;19.50;99.90
44136;DHT22;29798;51.064;13.734;2022-08-03T04:40:39;19.50;99.90
44136;DHT22;29798;51.064;13.734;2022-08-03T04:43:05;19.50;99.90
44136;DHT22;29798;51.064;13.734;2022-08-03T04:45:32;19.60;99.90
44136;DHT22;29798;51.064;13.734;2022-08-03T04:47:58;19.60;99.90
44136;DHT22;29798;51.064;13.734;2022-08-03T04:50:24;19.70;99.90
44136;DHT22;29798;51.064;13.734;2022-08-03T04:53:05;19.70;99.90
44136;DHT22;29798;51.064;13.734;2022-08-03T04:55:31;19.80;99.90
44136;DHT22;29798;51.064;13.734;2022-08-03T04:57:58;19.80;99.90
44136;DHT22;29798;51.064;13.734;2022-08-03T05:00:24;19.80;99.90
44136;DHT22;29798;51.064;13.734;2022-08-03T05:02:49;19.90;99.90
44136;DHT22;29798;51.064;13.734;2022-08-03T05:05:16;19.90;99.90
44136;DHT22;29798;51.064;13.734;2022-08-03T05:07:41;19.90;99.90
44136;DHT22;29798;51.064;13.734;2022-08-03T05:10:08;20.00;99.90
44136;DHT22;29798;51.064;13.734;2022-08-03T05:12:34;20.00;99.90
44136;DHT22;29798;51.064;13.734;2022-08-03T05:15:00;21.80;99.90
44136;DHT22;29798;51.064;13.734;2022-08-03T05:17:26;20.10;99.90
44136;DHT22;29798;51.064;13.734;2022-08-03T05:19:52;20.20;99.90
44136;DHT22;29798;51.064;13.734;2022-08-03T05:22:18;20.20;99.90
44136;DHT22;29798;51.064;13.734;2022-08-03T05:24:44;20.20;99.90
44136;DHT22;29798;51.064;13.734;2022-08-03T05:27:10;20.30;99.90
44136;DHT22;29798;51.064;13.734;2022-08-03T05:29:42;20.40;99.90
44136;DHT22;29798;51.064;13.734;2022-08-03T05:32:07;20.50;99.90
44136;DHT22;29798;51.064;13.734;2022-08-03T05:34:33;20.50;99.90
44136;DHT22;29798;51.064;13.734;2022-08-03T05:36:59;20.60;99.90
44136;DHT22;29798;51.064;13.734;2022-08-03T05:39:24;20.70;99.90
44136;DHT22;29798;51.064;13.734;2022-08-03T05:41:50;20.80;99.90
44136;DHT22;29798;51.064;13.734;2022-08-03T05:44:16;20.80;99.90
44136;DHT22;29798;51.064;13.734;2022-08-03T05:46:41;20.90;99.90
44136;DHT22;29798;51.064;13.734;2022-08-03T05:49:07;21.00;99.90
44136;DHT22;29798;51.064;13.734;2022-08-03T05:51:32;21.00;99.90
44136;DHT22;29798;51.064;13.734;2022-08-03T05:53:58;21.10;99.90
44136;DHT22;29798;51.064;13.734;2022-08-03T05:56:24;21.10;99.90
44136;DHT22;29798;51.064;13.734;2022-08-03T05:58:49;21.20;99.90
44136;DHT22;29798;51.064;13.734;2022-08-03T06:01:16;21.40;99.90
44136;DHT22;29798;51.064;13.734;2022-08-03T06:03:43;21.50;99.90
44136;DHT22;29798;51.064;13.734;2022-08-03T06:06:09;21.60;99.90
44136;DHT22;29798;51.064;13.734;2022-08-03T06:08:35;21.70;99.90
44136;DHT22;29798;51.064;13.734;2022-08-03T06:11:02;21.70;99.90
44136;DHT22;29798;51.064;13.734;2022-08-03T06:13:27;21.90;99.90
44136;DHT22;29798;51.064;13.734;2022-08-03T06:15:53;21.90;99.90
44136;DHT22;29798;51.064;13.734;2022-08-03T06:18:19;22.10;99.90
44136;DHT22;29798;51.064;13.734;2022-08-03T06:20:44;22.20;99.90
44136;DHT22;29798;51.064;13.734;2022-08-03T06:23:10;22.30;99.90
44136;DHT22;29798;51.064;13.734;2022-08-03T06:25:36;22.40;99.90
44136;DHT22;29798;51.064;13.734;2022-08-03T06:28:01;22.50;99.90
44136;DHT22;29798;51.064;13.734;2022-08-03T06:30:29;22.60;99.90
44136;DHT22;29798;51.064;13.734;2022-08-03T06:32:55;22.70;99.90
44136;DHT22;29798;51.064;13.734;2022-08-03T06:35:20;23.70;99.90
44136;DHT22;29798;51.064;13.734;2022-08-03T06:37:49;22.90;99.90
44136;DHT22;29798;51.064;13.734;2022-08-03T06:40:16;23.00;99.90
44136;DHT22;29798;51.064;13.734;2022-08-03T06:42:43;23.10;99.90
44136;DHT22;29798;51.064;13.734;2022-08-03T06:45:08;23.20;99.90
44136;DHT22;29798;51.064;13.734;2022-08-03T06:47:35;23.30;99.90
44136;DHT22;29798;51.064;13.734;2022-08-03T06:50:01;23.50;99.90
44136;DHT22;29798;51.064;13.734;2022-08-03T06:52:26;23.50;99.90
44136;DHT22;29798;51.064;13.734;2022-08-03T06:54:52;23.70;99.90
44136;DHT22;29798;51.064;13.734;2022-08-03T06:57:17;23.80;99.90
44136;DHT22;29798;51.064;13.734;2022-08-03T06:59:43;23.90;99.90
44136;DHT22;29798;51.064;13.734;2022-08-03T07:02:09;24.00;99.90
44136;DHT22;29798;51.064;13.734;2022-08-03T07:04:36;24.10;99.90
44136;DHT22;29798;51.064;13.734;2022-08-03T07:07:01;24.30;99.90
44136;DHT22;29798;51.064;13.734;2022-08-03T07:09:27;24.40;99.90
44136;DHT22;29798;51.064;13.734;2022-08-03T07:11:53;24.60;99.90
44136;DHT22;29798;51.064;13.734;2022-08-03T07:14:18;24.70;99.90
44136;DHT22;29798;51.064;13.734;2022-08-03T07:16:44;24.80;99.90
44136;DHT22;29798;51.064;13.734;2022-08-03T07:19:10;24.90;99.90
44136;DHT22;29798;51.064;13.734;2022-08-03T07:21:36;25.10;99.90
44136;DHT22;29798;51.064;13.734;2022-08-03T07:24:02;25.20;99.90
44136;DHT22;29798;51.064;13.734;2022-08-03T07:26:27;25.30;99.90
44136;DHT22;29798;51.064;13.734;2022-08-03T07:28:53;25.40;99.90
44136;DHT22;29798;51.064;13.734;2022-08-03T07:31:19;25.50;99.90
44136;DHT22;29798;51.064;13.734;2022-08-03T07:33:44;25.70;99.90
44136;DHT22;29798;51.064;13.734;2022-08-03T07:36:10;25.80;99.90
44136;DHT22;29798;51.064;13.734;2022-08-03T07:38:36;26.00;99.90
44136;DHT22;29798;51.064;13.734;2022-08-03T07:41:02;26.10;99.90
44136;DHT22;29798;51.064;13.734;2022-08-03T07:43:28;26.30;99.90
44136;DHT22;29798;51.064;13.734;2022-08-03T07:45:54;26.40;99.90
44136;DHT22;29798;51.064;13.734;2022-08-03T07:48:19;26.50;99.90
44136;DHT22;29798;51.064;13.734;2022-08-03T07:50:45;26.60;99.90
44136;DHT22;29798;51.064;13.734;2022-08-03T07:53:11;26.80;99.90
44136;DHT22;29798;51.064;13.734;2022-08-03T07:55:36;26.90;99.90
44136;DHT22;29798;51.064;13.734;2022-08-03T08:00:28;27.00;99.90
44136;DHT22;29798;51.064;13.734;2022-08-03T08:02:54;27.10;99.90
44136;DHT22;29798;51.064;13.734;2022-08-03T08:05:19;27.30;99.90
44136;DHT22;29798;51.064;13.734;2022-08-03T08:07:45;27.40;99.90
44136;DHT22;29798;51.064;13.734;2022-08-03T08:10:10;27.60;99.90
44136;DHT22;29798;51.064;13.734;2022-08-03T08:12:37;27.70;99.90
44136;DHT22;29798;51.064;13.734;2022-08-03T08:15:03;27.80;99.90
44136;DHT22;29798;51.064;13.734;2022-08-03T08:17:29;27.90;99.90
44136;DHT22;29798;51.064;13.734;2022-08-03T08:19:55;28.10;99.90
44136;DHT22;29798;51.064;13.734;2022-08-03T08:22:21;28.20;99.90
44136;DHT22;29798;51.064;13.734;2022-08-03T08:24:46;28.30;99.90
44136;DHT22;29798;51.064;13.734;2022-08-03T08:27:14;28.50;99.90
44136;DHT22;29798;51.064;13.734;2022-08-03T08:29:39;28.60;99.90
44136;DHT22;29798;51.064;13.734;2022-08-03T08:32:05;28.70;99.90
44136;DHT22;29798;51.064;13.734;2022-08-03T08:34:31;28.80;99.90
44136;DHT22;29798;51.064;13.734;2022-08-03T08:36:56;28.80;99.90
44136;DHT22;29798;51.064;13.734;2022-08-03T08:39:23;28.80;99.90
44136;DHT22;29798;51.064;13.734;2022-08-03T08:41:51;28.80;99.90
44136;DHT22;29798;51.064;13.734;2022-08-03T08:44:17;28.80;99.90
44136;DHT22;29798;51.064;13.734;2022-08-03T08:46:43;28.80;99.90
44136;DHT22;29798;51.064;13.734;2022-08-03T08:49:09;28.90;99.90
44136;DHT22;29798;51.064;13.734;2022-08-03T08:51:35;28.90;99.90
44136;DHT22;29798;51.064;13.734;2022-08-03T08:54:03;29.00;99.90
44136;DHT22;29798;51.064;13.734;2022-08-03T08:56:31;29.10;99.90
44136;DHT22;29798;51.064;13.734;2022-08-03T08:58:58;29.00;99.90
44136;DHT22;29798;51.064;13.734;2022-08-03T09:01:24;29.10;99.90
44136;DHT22;29798;51.064;13.734;2022-08-03T09:03:50;29.30;99.90
44136;DHT22;29798;51.064;13.734;2022-08-03T09:06:17;29.40;99.90
44136;DHT22;29798;51.064;13.734;2022-08-03T09:08:43;29.50;99.90
44136;DHT22;29798;51.064;13.734;2022-08-03T09:11:09;29.60;99.90
44136;DHT22;29798;51.064;13.734;2022-08-03T09:13:34;29.70;99.90
44136;DHT22;29798;51.064;13.734;2022-08-03T09:16:10;29.90;99.90
44136;DHT22;29798;51.064;13.734;2022-08-03T09:18:36;30.00;99.90
44136;DHT22;29798;51.064;13.734;2022-08-03T09:23:44;30.30;99.90
44136;DHT22;29798;51.064;13.734;2022-08-03T09:26:10;30.30;99.90
44136;DHT22;29798;51.064;13.734;2022-08-03T09:28:36;30.20;99.80
44136;DHT22;29798;51.064;13.734;2022-08-03T09:31:02;30.20;99.30
44136;DHT22;29798;51.064;13.734;2022-08-03T09:33:27;30.30;99.00
44136;DHT22;29798;51.064;13.734;2022-08-03T09:35:53;30.40;98.70
44136;DHT22;29798;51.064;13.734;2022-08-03T09:38:21;30.40;98.00
44136;DHT22;29798;51.064;13.734;2022-08-03T09:40:52;30.40;97.70
44136;DHT22;29798;51.064;13.734;2022-08-03T09:43:18;30.50;97.80
44136;DHT22;29798;51.064;13.734;2022-08-03T09:45:43;30.60;97.60
44136;DHT22;29798;51.064;13.734;2022-08-03T09:48:19;30.70;97.00
44136;DHT22;29798;51.064;13.734;2022-08-03T09:50:54;30.80;96.70
44136;DHT22;29798;51.064;13.734;2022-08-03T09:53:21;30.90;96.40
44136;DHT22;29798;51.064;13.734;2022-08-03T09:58:15;31.10;94.60
44136;DHT22;29798;51.064;13.734;2022-08-03T10:03:19;31.30;93.90
44136;DHT22;29798;51.064;13.734;2022-08-03T10:05:44;31.50;94.00
44136;DHT22;29798;51.064;13.734;2022-08-03T10:08:15;31.70;94.00
44136;DHT22;29798;51.064;13.734;2022-08-03T10:10:45;32.20;93.20
44136;DHT22;29798;51.064;13.734;2022-08-03T10:13:12;32.70;92.30
44136;DHT22;29798;51.064;13.734;2022-08-03T10:15:38;33.00;91.80
44136;DHT22;29798;51.064;13.734;2022-08-03T10:18:04;33.70;91.00
44136;DHT22;29798;51.064;13.734;2022-08-03T10:20:30;34.40;89.40
44136;DHT22;29798;51.064;13.734;2022-08-03T10:22:57;35.10;86.90
44136;DHT22;29798;51.064;13.734;2022-08-03T10:25:23;35.50;83.10
44136;DHT22;29798;51.064;13.734;2022-08-03T10:27:50;35.80;81.80
44136;DHT22;29798;51.064;13.734;2022-08-03T10:30:17;36.10;80.20
44136;DHT22;29798;51.064;13.734;2022-08-03T10:32:43;36.20;79.00
44136;DHT22;29798;51.064;13.734;2022-08-03T10:35:12;36.60;78.80
44136;DHT22;29798;51.064;13.734;2022-08-03T10:40:14;37.50;75.30
44136;DHT22;29798;51.064;13.734;2022-08-03T10:42:41;37.50;74.70
44136;DHT22;29798;51.064;13.734;2022-08-03T10:45:18;37.30;74.00
44136;DHT22;29798;51.064;13.734;2022-08-03T10:47:44;36.90;74.80
44136;DHT22;29798;51.064;13.734;2022-08-03T10:50:10;37.00;73.60
44136;DHT22;29798;51.064;13.734;2022-08-03T10:52:52;37.00;74.10
44136;DHT22;29798;51.064;13.734;2022-08-03T10:55:28;37.60;73.50
44136;DHT22;29798;51.064;13.734;2022-08-03T10:58:12;38.30;71.00
44136;DHT22;29798;51.064;13.734;2022-08-03T11:00:47;38.60;69.90
44136;DHT22;29798;51.064;13.734;2022-08-03T11:03:13;38.70;70.00
44136;DHT22;29798;51.064;13.734;2022-08-03T11:10:49;39.40;66.60
44136;DHT22;29798;51.064;13.734;2022-08-03T11:13:16;39.10;66.50
44136;DHT22;29798;51.064;13.734;2022-08-03T11:15:43;39.10;67.60
44136;DHT22;29798;51.064;13.734;2022-08-03T11:18:10;39.60;66.00
44136;DHT22;29798;51.064;13.734;2022-08-03T11:20:42;40.00;65.30
44136;DHT22;29798;51.064;13.734;2022-08-03T11:23:08;40.30;63.50
44136;DHT22;29798;51.064;13.734;2022-08-03T11:28:25;40.10;62.20
44136;DHT22;29798;51.064;13.734;2022-08-03T11:30:52;39.90;62.60
44136;DHT22;29798;51.064;13.734;2022-08-03T11:33:27;40.10;62.80
44136;DHT22;29798;51.064;13.734;2022-08-03T11:36:00;40.20;61.70
44136;DHT22;29798;51.064;13.734;2022-08-03T11:38:26;39.70;62.30
44136;DHT22;29798;51.064;13.734;2022-08-03T11:40:52;39.60;62.10
44136;DHT22;29798;51.064;13.734;2022-08-03T11:45:56;39.90;62.00
44136;DHT22;29798;51.064;13.734;2022-08-03T11:48:22;40.00;61.50
44136;DHT22;29798;51.064;13.734;2022-08-03T11:50:51;40.30;60.50
44136;DHT22;29798;51.064;13.734;2022-08-03T11:53:17;40.80;59.90
44136;DHT22;29798;51.064;13.734;2022-08-03T11:55:43;40.80;59.30
44136;DHT22;29798;51.064;13.734;2022-08-03T11:58:15;40.80;59.70
44136;DHT22;29798;51.064;13.734;2022-08-03T12:00:40;40.90;58.90
44136;DHT22;29798;51.064;13.734;2022-08-03T12:03:07;41.10;58.50
44136;DHT22;29798;51.064;13.734;2022-08-03T12:05:37;40.90;58.30
44136;DHT22;29798;51.064;13.734;2022-08-03T12:08:04;40.80;58.20
44136;DHT22;29798;51.064;13.734;2022-08-03T12:10:29;41.20;58.20
44136;DHT22;29798;51.064;13.734;2022-08-03T12:12:56;41.30;58.10
44136;DHT22;29798;51.064;13.734;2022-08-03T12:15:29;41.60;57.80
44136;DHT22;29798;51.064;13.734;2022-08-03T12:17:55;42.40;57.00
44136;DHT22;29798;51.064;13.734;2022-08-03T12:20:22;43.30;56.00
44136;DHT22;29798;51.064;13.734;2022-08-03T12:22:48;43.90;55.10
44136;DHT22;29798;51.064;13.734;2022-08-03T12:25:24;43.70;54.40
44136;DHT22;29798;51.064;13.734;2022-08-03T12:27:51;43.50;54.90
44136;DHT22;29798;51.064;13.734;2022-08-03T12:30:17;44.00;54.60
44136;DHT22;29798;51.064;13.734;2022-08-03T12:32:43;44.10;53.90
44136;DHT22;29798;51.064;13.734;2022-08-03T12:35:09;44.10;54.20
44136;DHT22;29798;51.064;13.734;2022-08-03T12:37:35;44.40;54.10
44136;DHT22;29798;51.064;13.734;2022-08-03T12:40:01;44.50;53.00
44136;DHT22;29798;51.064;13.734;2022-08-03T12:42:32;45.20;52.00
44136;DHT22;29798;51.064;13.734;2022-08-03T12:44:58;45.40;52.00
44136;DHT22;29798;51.064;13.734;2022-08-03T12:47:24;45.30;52.20
44136;DHT22;29798;51.064;13.734;2022-08-03T12:49:51;45.60;51.70
44136;DHT22;29798;51.064;13.734;2022-08-03T12:52:17;45.80;51.20
44136;DHT22;29798;51.064;13.734;2022-08-03T12:54:53;46.20;50.80
44136;DHT22;29798;51.064;13.734;2022-08-03T12:57:18;45.70;51.20
44136;DHT22;29798;51.064;13.734;2022-08-03T12:59:44;45.70;50.50
44136;DHT22;29798;51.064;13.734;2022-08-03T13:02:16;45.80;50.20
44136;DHT22;29798;51.064;13.734;2022-08-03T13:04:42;45.80;50.30
44136;DHT22;29798;51.064;13.734;2022-08-03T13:07:08;45.20;49.90
44136;DHT22;29798;51.064;13.734;2022-08-03T13:12:16;45.60;49.70
44136;DHT22;29798;51.064;13.734;2022-08-03T13:14:42;45.80;49.50
44136;DHT22;29798;51.064;13.734;2022-08-03T13:17:08;45.60;49.60
44136;DHT22;29798;51.064;13.734;2022-08-03T13:19:34;46.40;49.00
44136;DHT22;29798;51.064;13.734;2022-08-03T13:22:09;46.80;48.90
44136;DHT22;29798;51.064;13.734;2022-08-03T13:24:34;46.80;48.50
44136;DHT22;29798;51.064;13.734;2022-08-03T13:27:00;46.20;48.60
44136;DHT22;29798;51.064;13.734;2022-08-03T13:29:26;45.50;49.00
44136;DHT22;29798;51.064;13.734;2022-08-03T13:31:52;45.10;50.00
44136;DHT22;29798;51.064;13.734;2022-08-03T13:34:18;45.30;49.20
44136;DHT22;29798;51.064;13.734;2022-08-03T13:36:43;45.60;48.40
44136;DHT22;29798;51.064;13.734;2022-08-03T13:39:09;45.80;49.50
44136;DHT22;29798;51.064;13.734;2022-08-03T13:41:34;45.80;49.00
44136;DHT22;29798;51.064;13.734;2022-08-03T13:44:00;45.70;48.40
44136;DHT22;29798;51.064;13.734;2022-08-03T13:46:26;46.00;48.20
44136;DHT22;29798;51.064;13.734;2022-08-03T13:48:52;45.60;47.70
44136;DHT22;29798;51.064;13.734;2022-08-03T13:51:17;45.60;47.90
44136;DHT22;29798;51.064;13.734;2022-08-03T13:53:43;45.60;47.70
44136;DHT22;29798;51.064;13.734;2022-08-03T13:56:08;46.10;47.80
44136;DHT22;29798;51.064;13.734;2022-08-03T13:58:34;46.80;47.20
44136;DHT22;29798;51.064;13.734;2022-08-03T14:00:59;47.10;47.10
44136;DHT22;29798;51.064;13.734;2022-08-03T14:03:25;47.50;47.10
44136;DHT22;29798;51.064;13.734;2022-08-03T14:05:51;47.40;47.10
44136;DHT22;29798;51.064;13.734;2022-08-03T14:08:16;48.10;46.60
44136;DHT22;29798;51.064;13.734;2022-08-03T14:10:42;48.30;45.70
44136;DHT22;29798;51.064;13.734;2022-08-03T14:13:09;48.00;45.70
44136;DHT22;29798;51.064;13.734;2022-08-03T14:15:35;47.90;45.60
44136;DHT22;29798;51.064;13.734;2022-08-03T14:18:01;48.00;46.00
44136;DHT22;29798;51.064;13.734;2022-08-03T14:20:26;48.00;45.70
44136;DHT22;29798;51.064;13.734;2022-08-03T14:22:53;48.30;45.00
44136;DHT22;29798;51.064;13.734;2022-08-03T14:25:18;48.10;45.00
44136;DHT22;29798;51.064;13.734;2022-08-03T14:27:44;47.60;44.70
44136;DHT22;29798;51.064;13.734;2022-08-03T14:30:10;47.50;44.90
44136;DHT22;29798;51.064;13.734;2022-08-03T14:32:35;47.80;45.20
44136;DHT22;29798;51.064;13.734;2022-08-03T14:35:01;48.40;44.30
44136;DHT22;29798;51.064;13.734;2022-08-03T14:37:27;48.70;44.50
44136;DHT22;29798;51.064;13.734;2022-08-03T14:39:53;48.90;44.30
44136;DHT22;29798;51.064;13.734;2022-08-03T14:42:19;48.50;44.20
44136;DHT22;29798;51.064;13.734;2022-08-03T14:44:45;48.40;44.30
44136;DHT22;29798;51.064;13.734;2022-08-03T14:47:10;48.40;44.30
44136;DHT22;29798;51.064;13.734;2022-08-03T14:49:36;48.40;44.00
44136;DHT22;29798;51.064;13.734;2022-08-03T14:52:02;48.50;43.40
44136;DHT22;29798;51.064;13.734;2022-08-03T14:54:28;48.50;43.20
44136;DHT22;29798;51.064;13.734;2022-08-03T14:56:55;49.00;43.50
44136;DHT22;29798;51.064;13.734;2022-08-03T14:59:21;48.50;43.30
44136;DHT22;29798;51.064;13.734;2022-08-03T15:01:47;48.40;44.00
44136;DHT22;29798;51.064;13.734;2022-08-03T15:04:13;48.40;42.90
44136;DHT22;29798;51.064;13.734;2022-08-03T15:06:38;48.20;42.80
44136;DHT22;29798;51.064;13.734;2022-08-03T15:09:04;48.30;43.10
44136;DHT22;29798;51.064;13.734;2022-08-03T15:11:30;48.40;42.70
44136;DHT22;29798;51.064;13.734;2022-08-03T15:13:55;48.30;42.90
44136;DHT22;29798;51.064;13.734;2022-08-03T15:16:21;48.60;43.20
44136;DHT22;29798;51.064;13.734;2022-08-03T15:18:46;49.20;42.70
44136;DHT22;29798;51.064;13.734;2022-08-03T15:21:12;49.70;42.60
44136;DHT22;29798;51.064;13.734;2022-08-03T15:23:38;50.30;41.90
44136;DHT22;29798;51.064;13.734;2022-08-03T15:26:03;50.10;41.50
44136;DHT22;29798;51.064;13.734;2022-08-03T15:28:29;49.70;41.80
44136;DHT22;29798;51.064;13.734;2022-08-03T15:30:55;50.00;41.90
44136;DHT22;29798;51.064;13.734;2022-08-03T15:33:20;49.80;41.90
44136;DHT22;29798;51.064;13.734;2022-08-03T15:35:46;49.20;42.10
44136;DHT22;29798;51.064;13.734;2022-08-03T15:38:12;49.40;42.30
44136;DHT22;29798;51.064;13.734;2022-08-03T15:40:37;48.70;41.80
44136;DHT22;29798;51.064;13.734;2022-08-03T15:43:03;48.90;42.70
44136;DHT22;29798;51.064;13.734;2022-08-03T15:45:29;49.10;43.00
44136;DHT22;29798;51.064;13.734;2022-08-03T15:47:54;49.00;42.40
44136;DHT22;29798;51.064;13.734;2022-08-03T15:50:20;49.10;42.10
44136;DHT22;29798;51.064;13.734;2022-08-03T15:52:46;49.20;42.20
44136;DHT22;29798;51.064;13.734;2022-08-03T15:55:12;49.00;42.30
44136;DHT22;29798;51.064;13.734;2022-08-03T15:57:37;49.30;41.80